Terminal Aerodrome Forecast
Issued by NWS Cleveland, OH

Home | Current Version | Previous Version | Text Only | Print | Product List | Glossary On
Versions: 1 2 3 4 5 6 7 8 9 10 11 12 13 14 15 16 17 18 19 20 21 22 23 24
220
FTUS41 KCLE 271727
TAFCLE
TAF
KCLE 271727Z 2718/2824 29010G18KT P6SM SCT040
      TEMPO 2718/2722 BKN040
     FM272300 25006KT P6SM SCT250
     FM280300 21006KT P6SM FEW250
     FM282000 22010KT P6SM SCT100=

USA.gov is the U.S. government's official web portal to all federal, state and local government web resources and services.